createdAt,value
2022-11-24T00:01:24.391Z,5.67
2022-11-24T00:04:03.452Z,4.50
2022-11-24T00:06:32.969Z,3.90
2022-11-24T00:09:02.015Z,4.00
2022-11-24T00:11:33.257Z,3.27
2022-11-24T00:14:01.872Z,3.60
2022-11-24T00:16:32.169Z,3.70
2022-11-24T00:19:01.921Z,3.37
2022-11-24T00:21:31.228Z,3.50
2022-11-24T00:23:59.485Z,4.30
2022-11-24T00:26:33.130Z,3.73
2022-11-24T00:29:03.142Z,3.93
2022-11-24T00:31:36.199Z,3.87
2022-11-24T00:34:06.833Z,4.67
2022-11-24T00:36:36.557Z,3.90
2022-11-24T00:39:11.051Z,4.37
2022-11-24T00:41:39.089Z,4.07
2022-11-24T00:44:07.246Z,4.23
2022-11-24T00:46:35.159Z,4.20
2022-11-24T00:49:02.994Z,4.07
2022-11-24T00:51:31.172Z,3.83
2022-11-24T00:54:00.091Z,6.03
2022-11-24T00:56:29.164Z,5.30
2022-11-24T00:58:57.031Z,6.23
2022-11-24T01:01:27.526Z,4.97
2022-11-24T01:03:55.802Z,4.50
2022-11-24T01:06:26.129Z,4.13
2022-11-24T01:08:54.722Z,4.13
2022-11-24T01:11:28.445Z,4.13
2022-11-24T01:13:57.987Z,4.63
2022-11-24T01:16:27.961Z,4.10
2022-11-24T01:18:56.474Z,3.73
2022-11-24T01:21:24.488Z,4.13
2022-11-24T01:23:52.261Z,3.77
2022-11-24T01:26:22.241Z,3.97
2022-11-24T01:28:57.072Z,3.63
2022-11-24T01:31:26.160Z,4.03
2022-11-24T01:33:54.216Z,4.03
2022-11-24T01:36:22.768Z,3.83
2022-11-24T01:38:50.586Z,4.10
2022-11-24T01:41:23.830Z,4.10
2022-11-24T01:43:53.229Z,3.50
2022-11-24T01:46:26.873Z,3.60
2022-11-24T01:49:14.630Z,4.10
2022-11-24T01:51:57.029Z,4.50
2022-11-24T01:54:38.624Z,30.93
2022-11-24T01:57:16.472Z,34.63
2022-11-24T01:59:47.103Z,29.13
2022-11-24T02:02:15.239Z,11.73
2022-11-24T02:04:44.122Z,7.83
2022-11-24T02:07:12.904Z,5.20
2022-11-24T02:09:49.482Z,4.37
2022-11-24T02:12:17.323Z,6.23
2022-11-24T02:14:45.973Z,8.40
2022-11-24T02:17:13.556Z,9.43
2022-11-24T02:19:41.199Z,5.77
2022-11-24T02:22:20.325Z,25.17
2022-11-24T02:24:51.939Z,30.13
2022-11-24T02:27:19.995Z,23.60
2022-11-24T02:29:48.592Z,6.80
2022-11-24T02:32:16.724Z,12.73
2022-11-24T02:34:44.353Z,10.60
2022-11-24T02:37:11.875Z,12.33
2022-11-24T02:39:39.425Z,8.30
2022-11-24T02:42:11.204Z,4.93
2022-11-24T02:44:46.923Z,4.50
2022-11-24T02:47:14.503Z,3.23
2022-11-24T02:49:42.228Z,3.70
2022-11-24T02:52:09.844Z,4.37
2022-11-24T02:54:37.585Z,5.53
2022-11-24T02:57:05.322Z,5.87
2022-11-24T02:59:32.914Z,5.57
2022-11-24T03:02:00.607Z,5.70
2022-11-24T03:04:28.304Z,5.93
2022-11-24T03:06:56.096Z,5.07
2022-11-24T03:09:23.684Z,4.50
2022-11-24T03:11:51.244Z,3.90
2022-11-24T03:14:18.790Z,8.67
2022-11-24T03:16:46.325Z,12.40
2022-11-24T03:19:13.881Z,19.00
2022-11-24T03:21:41.444Z,5.33
2022-11-24T03:24:09.037Z,4.17
2022-11-24T03:26:38.447Z,3.20
2022-11-24T03:29:06.064Z,3.97
2022-11-24T03:31:34.180Z,9.10
2022-11-24T03:34:01.839Z,9.73
2022-11-24T03:36:29.427Z,8.00
2022-11-24T03:38:57.022Z,5.00
2022-11-24T03:41:24.599Z,6.50
2022-11-24T03:43:52.224Z,7.83
2022-11-24T03:46:19.888Z,8.80
2022-11-24T03:48:47.487Z,8.67
2022-11-24T03:51:15.413Z,4.40
2022-11-24T03:53:42.986Z,5.90
2022-11-24T03:56:10.546Z,5.53
2022-11-24T03:58:38.096Z,5.30
2022-11-24T04:01:05.680Z,5.20
2022-11-24T04:03:33.285Z,4.80
2022-11-24T04:06:00.826Z,4.37
2022-11-24T04:08:28.424Z,5.73
2022-11-24T04:10:56.035Z,5.03
2022-11-24T04:13:25.162Z,5.13
2022-11-24T04:15:53.560Z,4.97
2022-11-24T04:18:21.714Z,8.20
2022-11-24T04:20:51.097Z,4.87
2022-11-24T04:23:19.241Z,4.90
2022-11-24T04:25:46.883Z,4.70
2022-11-24T04:28:14.651Z,4.43
2022-11-24T04:30:44.590Z,4.97
2022-11-24T04:33:13.099Z,4.03
2022-11-24T04:35:40.792Z,4.90
2022-11-24T04:38:08.433Z,4.77
2022-11-24T04:40:36.758Z,5.10
2022-11-24T04:43:04.413Z,4.70
2022-11-24T04:45:34.223Z,5.10
2022-11-24T04:48:01.856Z,5.03
2022-11-24T04:50:29.454Z,4.77
2022-11-24T04:52:57.150Z,4.67
2022-11-24T04:55:24.717Z,5.30
2022-11-24T04:57:52.337Z,5.50
2022-11-24T05:00:20.248Z,4.70
2022-11-24T05:02:47.907Z,5.47
2022-11-24T05:05:15.528Z,5.13
2022-11-24T05:07:43.215Z,4.33
2022-11-24T05:10:29.231Z,4.80
2022-11-24T05:12:59.559Z,4.37
2022-11-24T05:15:27.472Z,4.77
2022-11-24T05:17:55.253Z,4.00
2022-11-24T05:20:23.804Z,5.37
2022-11-24T05:22:51.523Z,3.90
2022-11-24T05:25:19.127Z,5.17
2022-11-24T05:27:46.721Z,4.10
2022-11-24T05:30:14.653Z,3.87
2022-11-24T05:32:43.779Z,4.27
2022-11-24T05:35:22.141Z,4.13
2022-11-24T05:38:25.351Z,4.77
2022-11-24T05:41:31.035Z,3.93
2022-11-24T05:44:26.288Z,3.80
2022-11-24T05:47:19.666Z,3.70
2022-11-24T05:50:09.314Z,3.67
2022-11-24T05:53:02.829Z,4.47
2022-11-24T05:56:01.653Z,3.57
2022-11-24T05:58:56.913Z,3.83
2022-11-24T06:01:42.889Z,3.43
2022-11-24T06:04:30.986Z,5.53
2022-11-24T06:07:03.091Z,5.03
2022-11-24T06:09:30.851Z,5.63
2022-11-24T06:11:59.227Z,3.80
2022-11-24T06:14:29.112Z,4.30
2022-11-24T06:17:00.761Z,5.10
2022-11-24T06:19:33.094Z,4.13
2022-11-24T06:22:00.918Z,4.57
2022-11-24T06:24:31.098Z,4.60
2022-11-24T06:26:58.875Z,5.27
2022-11-24T06:29:29.495Z,5.30
2022-11-24T06:32:08.884Z,4.73
2022-11-24T06:34:45.418Z,5.93
2022-11-24T06:37:42.873Z,4.87
2022-11-24T06:40:38.232Z,6.93
2022-11-24T06:43:40.768Z,4.67
2022-11-24T06:46:17.252Z,5.30
2022-11-24T06:49:07.864Z,5.63
2022-11-24T06:51:57.692Z,5.07
2022-11-24T06:54:46.411Z,4.30
2022-11-24T07:01:06.188Z,5.10
2022-11-24T07:06:45.564Z,4.40
2022-11-24T07:09:55.549Z,4.17
2022-11-24T07:13:17.320Z,4.20
2022-11-24T07:15:59.940Z,4.67
2022-11-24T07:19:09.489Z,4.57
2022-11-24T07:28:19.773Z,3.93
2022-11-24T07:30:58.496Z,4.17
2022-11-24T07:33:52.065Z,4.53
2022-11-24T07:39:25.441Z,4.37
2022-11-24T07:42:20.267Z,5.33
2022-11-24T07:45:20.953Z,4.33
2022-11-24T07:52:01.895Z,3.60
2022-11-24T07:54:32.179Z,3.73
2022-11-24T07:57:19.150Z,3.50
2022-11-24T08:00:10.939Z,4.40
2022-11-24T08:03:17.928Z,3.30
2022-11-24T08:06:31.817Z,3.57
2022-11-24T08:09:32.292Z,3.63
2022-11-24T08:12:35.630Z,3.33
2022-11-24T08:15:38.281Z,3.47
2022-11-24T08:18:48.181Z,3.83
2022-11-24T08:21:41.971Z,4.40
2022-11-24T08:25:03.265Z,3.73
2022-11-24T08:27:57.271Z,6.13
2022-11-24T08:31:31.166Z,4.00
2022-11-24T08:34:44.825Z,3.60
2022-11-24T08:37:37.975Z,3.60
2022-11-24T08:40:15.298Z,3.20
2022-11-24T08:42:51.659Z,4.07
2022-11-24T08:45:29.453Z,4.97
2022-11-24T08:48:10.328Z,3.47
2022-11-24T08:51:05.922Z,3.63
2022-11-24T08:57:34.431Z,3.00
2022-11-24T09:00:25.799Z,3.53
2022-11-24T09:03:27.497Z,3.13
2022-11-24T09:09:08.078Z,2.63
2022-11-24T09:11:51.035Z,3.00
2022-11-24T09:14:42.568Z,2.90
2022-11-24T09:20:55.332Z,3.00
2022-11-24T09:30:15.412Z,3.73
2022-11-24T09:33:03.151Z,3.00
2022-11-24T09:35:36.463Z,3.20
2022-11-24T09:38:10.267Z,2.83
2022-11-24T09:40:37.938Z,2.60
2022-11-24T09:43:18.520Z,2.33
2022-11-24T09:46:06.378Z,2.70
2022-11-24T09:48:44.103Z,2.00
2022-11-24T09:51:13.467Z,1.80
2022-11-24T09:53:47.059Z,2.00
2022-11-24T09:56:27.841Z,2.30
2022-11-24T09:59:08.960Z,1.97
2022-11-24T10:02:01.781Z,2.13
2022-11-24T10:05:11.835Z,2.03
2022-11-24T10:08:58.156Z,1.97
2022-11-24T10:12:23.725Z,2.00
2022-11-24T10:15:32.096Z,1.73
2022-11-24T10:19:11.356Z,1.80
2022-11-24T10:23:09.921Z,1.80
2022-11-24T10:29:22.990Z,2.03
2022-11-24T10:33:46.124Z,2.00
2022-11-24T10:35:48.193Z,1.43
2022-11-24T10:38:24.200Z,1.67
2022-11-24T10:41:02.236Z,1.50
2022-11-24T10:43:35.034Z,1.70
2022-11-24T10:47:10.271Z,1.77
2022-11-24T10:51:10.768Z,1.90
2022-11-24T10:54:30.843Z,1.70
2022-11-24T10:57:45.889Z,1.77
2022-11-24T11:03:50.925Z,2.10
2022-11-24T11:06:57.093Z,1.80
2022-11-24T11:10:51.439Z,1.50
2022-11-24T11:13:51.044Z,1.93
2022-11-24T11:20:20.071Z,1.60
2022-11-24T11:23:54.232Z,1.97
2022-11-24T11:26:56.920Z,1.60
2022-11-24T11:36:33.122Z,1.70
2022-11-24T11:39:49.450Z,1.93
2022-11-24T11:43:43.099Z,1.70
2022-11-24T11:46:38.707Z,1.53
2022-11-24T11:54:51.072Z,1.88
2022-11-24T11:56:47.012Z,1.40
2022-11-24T12:00:14.821Z,1.30
2022-11-24T12:03:32.775Z,1.67
2022-11-24T12:06:44.831Z,1.40
2022-11-24T12:10:04.589Z,1.60
2022-11-24T12:12:56.746Z,1.70
2022-11-24T12:16:38.009Z,1.50
2022-11-24T12:20:03.292Z,1.53
2022-11-24T12:23:21.127Z,1.50
2022-11-24T12:27:17.971Z,1.70
2022-11-24T12:30:21.732Z,1.77
2022-11-24T12:37:05.486Z,1.73
2022-11-24T12:40:12.357Z,1.30
2022-11-24T12:43:04.120Z,1.80
2022-11-24T12:45:43.717Z,1.10
2022-11-24T12:48:17.368Z,1.70
2022-11-24T12:50:46.180Z,1.27
2022-11-24T12:53:13.831Z,1.23
2022-11-24T12:56:04.555Z,1.70
2022-11-24T12:59:06.883Z,1.53
2022-11-24T13:02:18.425Z,1.67
2022-11-24T13:05:25.942Z,1.27
2022-11-24T13:08:29.072Z,1.48
2022-11-24T13:11:23.429Z,1.35
2022-11-24T13:14:26.967Z,1.70
2022-11-24T13:18:08.609Z,1.30
2022-11-24T13:21:07.268Z,1.63
2022-11-24T13:24:37.008Z,1.90
2022-11-24T13:27:50.204Z,2.08
2022-11-24T13:31:16.961Z,1.50
2022-11-24T13:37:36.197Z,1.70
2022-11-24T13:40:38.190Z,1.55
2022-11-24T13:43:08.648Z,1.67
2022-11-24T13:46:23.064Z,2.03
2022-11-24T13:52:42.300Z,1.63
2022-11-24T13:55:49.374Z,2.35
2022-11-24T13:58:50.947Z,1.60
2022-11-24T14:05:08.693Z,1.97
2022-11-24T14:08:20.537Z,1.90
2022-11-24T14:11:37.313Z,1.50
2022-11-24T14:15:01.082Z,2.40
2022-11-24T14:27:51.153Z,2.03
2022-11-24T14:30:39.527Z,2.22
2022-11-24T14:33:31.746Z,2.60
2022-11-24T14:40:21.668Z,2.40
2022-11-24T14:43:13.622Z,2.03
2022-11-24T14:49:57.462Z,1.97
2022-11-24T14:59:30.534Z,2.30
2022-11-24T15:02:49.991Z,3.23
2022-11-24T15:06:02.416Z,2.83
2022-11-24T15:09:09.577Z,2.97
2022-11-24T15:12:12.548Z,4.47
2022-11-24T15:15:25.181Z,2.40
2022-11-24T15:18:12.164Z,3.30
2022-11-24T15:20:45.255Z,2.50
2022-11-24T15:23:15.869Z,2.63
2022-11-24T15:25:43.548Z,2.00
2022-11-24T15:28:11.999Z,2.67
2022-11-24T15:30:39.720Z,2.50
2022-11-24T15:33:14.708Z,2.77
2022-11-24T15:35:42.933Z,3.03
2022-11-24T15:38:10.793Z,2.47
2022-11-24T15:40:40.940Z,2.73
2022-11-24T15:43:37.150Z,3.43
2022-11-24T15:46:06.087Z,4.80
2022-11-24T15:48:36.735Z,5.83
2022-11-24T15:51:20.788Z,4.53
2022-11-24T15:53:54.111Z,5.33
2022-11-24T15:56:35.615Z,4.80
2022-11-24T15:59:03.902Z,3.80
2022-11-24T16:01:34.349Z,3.10
2022-11-24T16:04:02.429Z,3.23
2022-11-24T16:06:30.624Z,3.07
2022-11-24T16:08:58.980Z,2.67
2022-11-24T16:11:26.765Z,2.53
2022-11-24T16:14:15.072Z,2.50
2022-11-24T16:16:42.980Z,2.67
2022-11-24T16:19:10.866Z,2.80
2022-11-24T16:21:38.484Z,2.83
2022-11-24T16:24:06.576Z,2.75
2022-11-24T16:26:34.183Z,2.60
2022-11-24T16:29:01.914Z,3.43
2022-11-24T16:31:29.707Z,3.40
2022-11-24T16:33:57.566Z,4.17
2022-11-24T16:36:35.626Z,5.67
2022-11-24T16:39:08.783Z,5.63
2022-11-24T16:41:43.116Z,11.63
2022-11-24T16:44:13.883Z,8.47
2022-11-24T16:46:47.394Z,9.57
2022-11-24T16:49:17.448Z,11.30
2022-11-24T16:51:48.407Z,17.40
2022-11-24T16:54:18.380Z,18.13
2022-11-24T16:56:48.127Z,8.17
2022-11-24T16:59:17.345Z,6.70
2022-11-24T17:01:46.689Z,7.33
2022-11-24T17:04:23.899Z,6.27
2022-11-24T17:07:02.318Z,5.30
2022-11-24T17:09:40.834Z,5.00
2022-11-24T17:12:14.563Z,6.03
2022-11-24T17:15:32.736Z,6.83
2022-11-24T17:18:23.620Z,7.80
2022-11-24T17:20:51.783Z,7.60
2022-11-24T17:23:27.549Z,7.00
2022-11-24T17:26:01.941Z,6.97
2022-11-24T17:28:35.122Z,7.13
2022-11-24T17:31:07.875Z,6.47
2022-11-24T17:33:39.059Z,11.00
2022-11-24T17:36:10.129Z,9.50
2022-11-24T17:38:40.386Z,6.47
2022-11-24T17:41:13.993Z,7.30
2022-11-24T17:43:43.067Z,5.93
2022-11-24T17:46:13.508Z,6.40
2022-11-24T17:48:41.127Z,6.90
2022-11-24T17:51:15.100Z,6.90
2022-11-24T17:53:45.395Z,5.60
2022-11-24T17:56:15.388Z,8.27
2022-11-24T17:58:43.660Z,6.83
2022-11-24T18:01:12.917Z,4.90
2022-11-24T18:03:41.868Z,5.50
2022-11-24T18:06:12.039Z,6.43
2022-11-24T18:08:41.752Z,7.53
2022-11-24T18:11:16.892Z,9.53
2022-11-24T18:14:01.478Z,6.83
2022-11-24T18:16:31.644Z,4.20
2022-11-24T18:19:08.797Z,4.13
2022-11-24T18:21:41.240Z,4.63
2022-11-24T18:24:10.954Z,4.13
2022-11-24T18:26:42.186Z,4.47
2022-11-24T18:29:11.475Z,5.50
2022-11-24T18:31:39.621Z,6.27
2022-11-24T18:34:07.841Z,6.17
2022-11-24T18:36:35.940Z,6.10
2022-11-24T18:39:09.102Z,6.40
2022-11-24T18:41:36.734Z,6.60
2022-11-24T18:44:07.915Z,6.30
2022-11-24T18:46:37.013Z,6.37
2022-11-24T18:49:06.851Z,7.10
2022-11-24T18:51:34.876Z,7.53
2022-11-24T18:54:04.706Z,7.40
2022-11-24T18:56:32.560Z,12.53
2022-11-24T18:59:00.221Z,10.20
2022-11-24T19:01:29.430Z,14.37
2022-11-24T19:04:00.361Z,8.77
2022-11-24T19:06:33.532Z,7.13
2022-11-24T19:09:13.425Z,6.80
2022-11-24T19:11:44.470Z,6.77
2022-11-24T19:14:17.610Z,7.80
2022-11-24T19:16:47.939Z,6.27
2022-11-24T19:19:16.989Z,6.60
2022-11-24T19:21:45.092Z,5.60
2022-11-24T19:24:15.806Z,5.93
2022-11-24T19:26:43.567Z,5.43
2022-11-24T19:29:11.437Z,5.67
2022-11-24T19:31:40.010Z,6.63
2022-11-24T19:34:08.176Z,8.23
2022-11-24T19:36:38.685Z,6.70
2022-11-24T19:39:07.631Z,6.93
2022-11-24T19:41:35.424Z,7.17
2022-11-24T19:44:03.151Z,8.23
2022-11-24T19:46:31.320Z,8.77
2022-11-24T19:49:05.099Z,8.97
2022-11-24T19:51:34.746Z,9.07
2022-11-24T19:54:03.648Z,8.83
2022-11-24T19:56:34.802Z,11.13
2022-11-24T19:59:04.377Z,10.53
2022-11-24T20:01:38.748Z,11.00
2022-11-24T20:04:14.869Z,11.30
2022-11-24T20:06:45.662Z,10.83
2022-11-24T20:09:17.870Z,9.97
2022-11-24T20:11:45.942Z,11.50
2022-11-24T20:14:15.277Z,10.00
2022-11-24T20:16:43.354Z,9.63
2022-11-24T20:19:13.410Z,9.70
2022-11-24T20:21:42.607Z,9.60
2022-11-24T20:24:15.664Z,8.90
2022-11-24T20:26:58.184Z,9.87
2022-11-24T20:29:26.207Z,9.63
2022-11-24T20:31:55.494Z,10.33
2022-11-24T20:34:24.238Z,22.57
2022-11-24T20:36:55.002Z,15.50
2022-11-24T20:39:31.822Z,10.18
2022-11-24T20:41:59.525Z,9.03
2022-11-24T20:44:27.783Z,9.13
2022-11-24T20:46:57.317Z,7.57
2022-11-24T20:49:25.911Z,8.70
2022-11-24T20:51:57.385Z,8.13
2022-11-24T20:54:25.226Z,8.37
2022-11-24T20:56:53.232Z,9.43
2022-11-24T20:59:22.981Z,8.30
2022-11-24T21:01:52.068Z,8.63
2022-11-24T21:04:22.759Z,8.90
2022-11-24T21:06:50.988Z,8.33
2022-11-24T21:09:19.153Z,9.27
2022-11-24T21:11:49.630Z,8.67
2022-11-24T21:14:17.381Z,9.40
2022-11-24T21:16:44.997Z,9.97
2022-11-24T21:19:14.742Z,8.60
2022-11-24T21:21:43.316Z,9.33
2022-11-24T21:24:15.937Z,9.87
2022-11-24T21:26:47.507Z,8.77
2022-11-24T21:29:18.872Z,9.17
2022-11-24T21:31:46.750Z,8.97
2022-11-24T21:34:16.235Z,9.10
2022-11-24T21:36:44.863Z,9.53
2022-11-24T21:39:14.003Z,9.53
2022-11-24T21:41:42.731Z,8.87
2022-11-24T21:44:14.071Z,9.53
2022-11-24T21:46:46.178Z,8.97
2022-11-24T21:49:17.144Z,9.50
2022-11-24T21:51:44.762Z,9.67
2022-11-24T21:54:12.358Z,8.83
2022-11-24T21:56:39.981Z,9.77
2022-11-24T21:59:07.730Z,9.77
2022-11-24T22:01:35.598Z,9.13
2022-11-24T22:04:03.322Z,10.23
2022-11-24T22:06:31.994Z,9.87
2022-11-24T22:08:59.658Z,9.67
2022-11-24T22:11:27.413Z,9.80
2022-11-24T22:13:55.124Z,10.13
2022-11-24T22:16:24.500Z,9.37
2022-11-24T22:18:52.916Z,9.87
2022-11-24T22:21:29.280Z,10.33
2022-11-24T22:23:56.979Z,9.13
2022-11-24T22:26:25.611Z,10.10
2022-11-24T22:28:57.602Z,9.20
2022-11-24T22:31:30.598Z,8.27
2022-11-24T22:33:59.681Z,8.90
2022-11-24T22:36:29.442Z,8.20
2022-11-24T22:39:04.979Z,9.37
2022-11-24T22:41:34.906Z,9.10
2022-11-24T22:44:03.082Z,10.10
2022-11-24T22:46:31.997Z,10.67
2022-11-24T22:49:01.107Z,10.50
2022-11-24T22:51:32.318Z,10.97
2022-11-24T22:54:02.599Z,10.87
2022-11-24T22:56:32.470Z,11.80
2022-11-24T22:59:01.511Z,11.80
2022-11-24T23:01:30.981Z,10.90
2022-11-24T23:03:58.745Z,12.67
2022-11-24T23:06:29.081Z,11.30
2022-11-24T23:08:58.221Z,10.97
2022-11-24T23:11:37.161Z,10.87
2022-11-24T23:14:08.433Z,11.70
2022-11-24T23:16:36.123Z,14.50
2022-11-24T23:19:04.246Z,12.77
2022-11-24T23:21:33.979Z,12.53
2022-11-24T23:24:02.915Z,13.93
2022-11-24T23:26:35.304Z,13.73
2022-11-24T23:29:04.651Z,13.53
2022-11-24T23:31:32.729Z,11.93
2022-11-24T23:34:02.449Z,11.33
2022-11-24T23:36:30.721Z,11.63
2022-11-24T23:39:05.875Z,12.70
2022-11-24T23:41:34.729Z,13.87
2022-11-24T23:44:02.358Z,12.70
2022-11-24T23:46:30.011Z,13.13
2022-11-24T23:48:57.795Z,12.33
2022-11-24T23:51:30.421Z,13.20
2022-11-24T23:53:59.525Z,19.03
2022-11-24T23:56:32.294Z,16.03
2022-11-24T23:59:03.963Z,19.37
